sensor_id;sensor_type;location;lat;lon;timestamp;P1;durP1;ratioP1;P2;durP2;ratioP2
55069;SDS011;40967;52.070;8.596;2023-02-08T00:01:48;7.68;;;4.10;;
55069;SDS011;40967;52.070;8.596;2023-02-08T00:04:14;8.77;;;4.47;;
55069;SDS011;40967;52.070;8.596;2023-02-08T00:06:39;7.68;;;3.88;;
55069;SDS011;40967;52.070;8.596;2023-02-08T00:09:05;8.27;;;4.47;;
55069;SDS011;40967;52.070;8.596;2023-02-08T00:11:31;8.20;;;4.43;;
55069;SDS011;40967;52.070;8.596;2023-02-08T00:13:57;8.55;;;4.20;;
55069;SDS011;40967;52.070;8.596;2023-02-08T00:16:22;8.15;;;4.45;;
55069;SDS011;40967;52.070;8.596;2023-02-08T00:18:48;9.07;;;4.50;;
55069;SDS011;40967;52.070;8.596;2023-02-08T00:21:14;7.60;;;4.17;;
55069;SDS011;40967;52.070;8.596;2023-02-08T00:23:41;7.85;;;4.35;;
55069;SDS011;40967;52.070;8.596;2023-02-08T00:26:06;7.95;;;4.10;;
55069;SDS011;40967;52.070;8.596;2023-02-08T00:28:32;8.10;;;4.00;;
55069;SDS011;40967;52.070;8.596;2023-02-08T00:30:58;8.37;;;4.27;;
55069;SDS011;40967;52.070;8.596;2023-02-08T00:33:23;7.87;;;4.17;;
55069;SDS011;40967;52.070;8.596;2023-02-08T00:35:57;7.60;;;3.90;;
55069;SDS011;40967;52.070;8.596;2023-02-08T00:38:23;8.27;;;4.20;;
55069;SDS011;40967;52.070;8.596;2023-02-08T00:40:49;7.97;;;4.05;;
55069;SDS011;40967;52.070;8.596;2023-02-08T00:43:15;8.03;;;4.60;;
55069;SDS011;40967;52.070;8.596;2023-02-08T00:45:40;7.80;;;3.90;;
55069;SDS011;40967;52.070;8.596;2023-02-08T00:48:05;7.40;;;4.17;;
55069;SDS011;40967;52.070;8.596;2023-02-08T00:50:31;7.80;;;3.83;;
55069;SDS011;40967;52.070;8.596;2023-02-08T00:52:57;7.63;;;4.03;;
55069;SDS011;40967;52.070;8.596;2023-02-08T00:55:23;8.70;;;4.50;;
55069;SDS011;40967;52.070;8.596;2023-02-08T00:57:48;8.17;;;4.20;;
55069;SDS011;40967;52.070;8.596;2023-02-08T01:00:14;7.80;;;4.20;;
55069;SDS011;40967;52.070;8.596;2023-02-08T01:02:40;7.60;;;4.03;;
55069;SDS011;40967;52.070;8.596;2023-02-08T01:05:05;6.87;;;3.80;;
55069;SDS011;40967;52.070;8.596;2023-02-08T01:07:31;6.32;;;3.63;;
55069;SDS011;40967;52.070;8.596;2023-02-08T01:09:56;7.27;;;3.87;;
55069;SDS011;40967;52.070;8.596;2023-02-08T01:12:22;7.85;;;3.83;;
55069;SDS011;40967;52.070;8.596;2023-02-08T01:14:48;8.20;;;4.13;;
55069;SDS011;40967;52.070;8.596;2023-02-08T01:17:14;8.53;;;4.17;;
55069;SDS011;40967;52.070;8.596;2023-02-08T01:19:39;7.22;;;3.92;;
55069;SDS011;40967;52.070;8.596;2023-02-08T01:22:05;7.90;;;4.00;;
55069;SDS011;40967;52.070;8.596;2023-02-08T01:24:30;8.27;;;4.20;;
55069;SDS011;40967;52.070;8.596;2023-02-08T01:26:56;8.13;;;4.17;;
55069;SDS011;40967;52.070;8.596;2023-02-08T01:29:21;7.90;;;4.17;;
55069;SDS011;40967;52.070;8.596;2023-02-08T01:31:47;8.50;;;4.30;;
55069;SDS011;40967;52.070;8.596;2023-02-08T01:34:12;9.17;;;4.80;;
55069;SDS011;40967;52.070;8.596;2023-02-08T01:36:38;8.73;;;4.43;;
55069;SDS011;40967;52.070;8.596;2023-02-08T01:39:04;8.40;;;4.25;;
55069;SDS011;40967;52.070;8.596;2023-02-08T01:41:35;8.30;;;4.30;;
55069;SDS011;40967;52.070;8.596;2023-02-08T01:44:05;8.20;;;4.65;;
55069;SDS011;40967;52.070;8.596;2023-02-08T01:46:40;8.68;;;4.20;;
55069;SDS011;40967;52.070;8.596;2023-02-08T01:49:14;8.00;;;4.10;;
55069;SDS011;40967;52.070;8.596;2023-02-08T01:54:17;8.40;;;4.40;;
55069;SDS011;40967;52.070;8.596;2023-02-08T01:56:46;8.77;;;4.50;;
55069;SDS011;40967;52.070;8.596;2023-02-08T01:59:15;9.10;;;4.90;;
55069;SDS011;40967;52.070;8.596;2023-02-08T02:01:45;7.63;;;3.85;;
55069;SDS011;40967;52.070;8.596;2023-02-08T02:04:12;7.55;;;3.90;;
55069;SDS011;40967;52.070;8.596;2023-02-08T02:06:39;8.00;;;4.20;;
55069;SDS011;40967;52.070;8.596;2023-02-08T02:11:56;7.30;;;3.67;;
55069;SDS011;40967;52.070;8.596;2023-02-08T02:14:24;7.70;;;3.90;;
55069;SDS011;40967;52.070;8.596;2023-02-08T02:16:49;6.93;;;3.50;;
55069;SDS011;40967;52.070;8.596;2023-02-08T02:22:06;7.05;;;3.50;;
55069;SDS011;40967;52.070;8.596;2023-02-08T02:25:01;8.13;;;4.10;;
55069;SDS011;40967;52.070;8.596;2023-02-08T02:41:24;7.22;;;3.70;;
55069;SDS011;40967;52.070;8.596;2023-02-08T02:44:37;8.02;;;3.88;;
55069;SDS011;40967;52.070;8.596;2023-02-08T02:52:40;8.80;;;4.68;;
55069;SDS011;40967;52.070;8.596;2023-02-08T02:55:14;7.93;;;4.20;;
55069;SDS011;40967;52.070;8.596;2023-02-08T02:57:43;9.15;;;4.82;;
55069;SDS011;40967;52.070;8.596;2023-02-08T03:00:11;8.95;;;4.65;;
55069;SDS011;40967;52.070;8.596;2023-02-08T03:02:46;9.10;;;5.22;;
55069;SDS011;40967;52.070;8.596;2023-02-08T03:05:12;8.00;;;4.47;;
55069;SDS011;40967;52.070;8.596;2023-02-08T03:12:53;9.73;;;4.80;;
55069;SDS011;40967;52.070;8.596;2023-02-08T03:31:44;7.97;;;4.22;;
55069;SDS011;40967;52.070;8.596;2023-02-08T03:34:52;8.60;;;4.50;;
55069;SDS011;40967;52.070;8.596;2023-02-08T03:40:22;9.70;;;4.57;;
55069;SDS011;40967;52.070;8.596;2023-02-08T03:42:53;9.68;;;4.75;;
55069;SDS011;40967;52.070;8.596;2023-02-08T03:45:24;8.32;;;4.25;;
55069;SDS011;40967;52.070;8.596;2023-02-08T03:48:01;8.52;;;4.53;;
55069;SDS011;40967;52.070;8.596;2023-02-08T03:50:31;8.48;;;4.57;;
55069;SDS011;40967;52.070;8.596;2023-02-08T03:52:58;8.30;;;4.35;;
55069;SDS011;40967;52.070;8.596;2023-02-08T03:55:29;7.72;;;4.00;;
55069;SDS011;40967;52.070;8.596;2023-02-08T03:58:01;7.63;;;4.18;;
55069;SDS011;40967;52.070;8.596;2023-02-08T04:00:35;8.90;;;4.50;;
55069;SDS011;40967;52.070;8.596;2023-02-08T04:03:05;9.80;;;4.78;;
55069;SDS011;40967;52.070;8.596;2023-02-08T04:05:37;8.60;;;4.53;;
55069;SDS011;40967;52.070;8.596;2023-02-08T04:08:02;9.77;;;5.03;;
55069;SDS011;40967;52.070;8.596;2023-02-08T04:10:28;7.93;;;4.00;;
55069;SDS011;40967;52.070;8.596;2023-02-08T04:12:53;8.30;;;4.50;;
55069;SDS011;40967;52.070;8.596;2023-02-08T04:15:19;9.33;;;4.50;;
55069;SDS011;40967;52.070;8.596;2023-02-08T04:17:44;8.07;;;4.18;;
55069;SDS011;40967;52.070;8.596;2023-02-08T04:20:10;7.40;;;3.97;;
55069;SDS011;40967;52.070;8.596;2023-02-08T04:22:35;7.63;;;4.05;;
55069;SDS011;40967;52.070;8.596;2023-02-08T04:25:01;7.88;;;4.00;;
55069;SDS011;40967;52.070;8.596;2023-02-08T04:27:26;8.87;;;4.40;;
55069;SDS011;40967;52.070;8.596;2023-02-08T04:29:52;9.35;;;4.20;;
55069;SDS011;40967;52.070;8.596;2023-02-08T04:32:17;8.23;;;4.30;;
55069;SDS011;40967;52.070;8.596;2023-02-08T04:34:42;7.67;;;3.90;;
55069;SDS011;40967;52.070;8.596;2023-02-08T04:37:08;7.20;;;3.83;;
55069;SDS011;40967;52.070;8.596;2023-02-08T04:39:35;9.60;;;4.67;;
55069;SDS011;40967;52.070;8.596;2023-02-08T04:42:00;9.77;;;4.87;;
55069;SDS011;40967;52.070;8.596;2023-02-08T04:44:26;8.98;;;4.72;;
55069;SDS011;40967;52.070;8.596;2023-02-08T04:46:52;9.90;;;4.70;;
55069;SDS011;40967;52.070;8.596;2023-02-08T04:49:17;9.27;;;4.80;;
55069;SDS011;40967;52.070;8.596;2023-02-08T04:51:44;9.00;;;4.75;;
55069;SDS011;40967;52.070;8.596;2023-02-08T04:54:09;9.30;;;4.57;;
55069;SDS011;40967;52.070;8.596;2023-02-08T04:56:35;8.07;;;4.20;;
55069;SDS011;40967;52.070;8.596;2023-02-08T04:59:00;8.33;;;4.30;;
55069;SDS011;40967;52.070;8.596;2023-02-08T05:01:26;8.03;;;4.10;;
55069;SDS011;40967;52.070;8.596;2023-02-08T05:03:51;8.98;;;4.72;;
55069;SDS011;40967;52.070;8.596;2023-02-08T05:06:17;7.57;;;3.87;;
55069;SDS011;40967;52.070;8.596;2023-02-08T05:08:42;6.82;;;3.72;;
55069;SDS011;40967;52.070;8.596;2023-02-08T05:11:08;8.33;;;4.30;;
55069;SDS011;40967;52.070;8.596;2023-02-08T05:13:33;7.47;;;3.77;;
55069;SDS011;40967;52.070;8.596;2023-02-08T05:15:59;6.83;;;3.77;;
55069;SDS011;40967;52.070;8.596;2023-02-08T05:18:24;7.43;;;3.60;;
55069;SDS011;40967;52.070;8.596;2023-02-08T05:20:53;7.85;;;3.78;;
55069;SDS011;40967;52.070;8.596;2023-02-08T05:23:23;8.57;;;4.20;;
55069;SDS011;40967;52.070;8.596;2023-02-08T05:25:50;8.98;;;4.22;;
55069;SDS011;40967;52.070;8.596;2023-02-08T05:28:15;7.65;;;4.15;;
55069;SDS011;40967;52.070;8.596;2023-02-08T05:30:41;8.57;;;4.78;;
55069;SDS011;40967;52.070;8.596;2023-02-08T05:33:07;8.40;;;4.27;;
55069;SDS011;40967;52.070;8.596;2023-02-08T05:35:32;9.57;;;4.60;;
55069;SDS011;40967;52.070;8.596;2023-02-08T05:37:58;10.00;;;5.18;;
55069;SDS011;40967;52.070;8.596;2023-02-08T05:40:24;8.47;;;4.30;;
55069;SDS011;40967;52.070;8.596;2023-02-08T05:42:49;8.13;;;4.15;;
55069;SDS011;40967;52.070;8.596;2023-02-08T05:45:14;7.73;;;4.30;;
55069;SDS011;40967;52.070;8.596;2023-02-08T05:47:40;8.67;;;4.13;;
55069;SDS011;40967;52.070;8.596;2023-02-08T05:50:06;8.10;;;4.20;;
55069;SDS011;40967;52.070;8.596;2023-02-08T05:52:32;8.73;;;4.33;;
55069;SDS011;40967;52.070;8.596;2023-02-08T05:54:57;10.27;;;4.90;;
55069;SDS011;40967;52.070;8.596;2023-02-08T05:57:23;8.93;;;4.50;;
55069;SDS011;40967;52.070;8.596;2023-02-08T05:59:48;7.75;;;4.05;;
55069;SDS011;40967;52.070;8.596;2023-02-08T06:02:14;9.77;;;4.87;;
55069;SDS011;40967;52.070;8.596;2023-02-08T06:04:39;9.82;;;5.05;;
55069;SDS011;40967;52.070;8.596;2023-02-08T06:07:04;12.70;;;6.17;;
55069;SDS011;40967;52.070;8.596;2023-02-08T06:09:32;11.30;;;5.95;;
55069;SDS011;40967;52.070;8.596;2023-02-08T06:12:04;12.03;;;6.27;;
55069;SDS011;40967;52.070;8.596;2023-02-08T06:14:29;11.43;;;5.80;;
55069;SDS011;40967;52.070;8.596;2023-02-08T06:16:57;11.73;;;5.80;;
55069;SDS011;40967;52.070;8.596;2023-02-08T06:19:31;12.50;;;6.28;;
55069;SDS011;40967;52.070;8.596;2023-02-08T06:21:56;12.07;;;5.80;;
55069;SDS011;40967;52.070;8.596;2023-02-08T06:24:22;10.80;;;5.40;;
55069;SDS011;40967;52.070;8.596;2023-02-08T06:26:49;11.20;;;6.20;;
55069;SDS011;40967;52.070;8.596;2023-02-08T06:29:15;11.82;;;6.45;;
55069;SDS011;40967;52.070;8.596;2023-02-08T06:31:40;11.33;;;6.03;;
55069;SDS011;40967;52.070;8.596;2023-02-08T06:34:06;12.27;;;6.88;;
55069;SDS011;40967;52.070;8.596;2023-02-08T06:36:31;11.47;;;6.33;;
55069;SDS011;40967;52.070;8.596;2023-02-08T06:38:58;12.50;;;6.55;;
55069;SDS011;40967;52.070;8.596;2023-02-08T06:41:23;12.23;;;6.03;;
55069;SDS011;40967;52.070;8.596;2023-02-08T06:43:49;10.87;;;5.70;;
55069;SDS011;40967;52.070;8.596;2023-02-08T06:46:15;10.07;;;5.20;;
55069;SDS011;40967;52.070;8.596;2023-02-08T06:48:40;10.40;;;5.27;;
55069;SDS011;40967;52.070;8.596;2023-02-08T06:51:06;10.53;;;5.50;;
55069;SDS011;40967;52.070;8.596;2023-02-08T06:53:32;10.93;;;5.18;;
55069;SDS011;40967;52.070;8.596;2023-02-08T06:55:58;10.37;;;5.70;;
55069;SDS011;40967;52.070;8.596;2023-02-08T06:58:23;11.83;;;5.83;;
55069;SDS011;40967;52.070;8.596;2023-02-08T07:00:48;9.90;;;4.93;;
55069;SDS011;40967;52.070;8.596;2023-02-08T07:03:14;11.60;;;5.60;;
55069;SDS011;40967;52.070;8.596;2023-02-08T07:05:42;10.52;;;5.22;;
55069;SDS011;40967;52.070;8.596;2023-02-08T07:08:08;10.07;;;5.00;;
55069;SDS011;40967;52.070;8.596;2023-02-08T07:10:33;9.30;;;5.15;;
55069;SDS011;40967;52.070;8.596;2023-02-08T07:13:00;9.48;;;5.03;;
55069;SDS011;40967;52.070;8.596;2023-02-08T07:15:26;9.63;;;5.10;;
55069;SDS011;40967;52.070;8.596;2023-02-08T07:17:51;9.83;;;4.77;;
55069;SDS011;40967;52.070;8.596;2023-02-08T07:20:17;9.30;;;4.97;;
55069;SDS011;40967;52.070;8.596;2023-02-08T07:22:42;9.90;;;4.90;;
55069;SDS011;40967;52.070;8.596;2023-02-08T07:25:08;10.70;;;5.40;;
55069;SDS011;40967;52.070;8.596;2023-02-08T07:27:34;10.25;;;5.35;;
55069;SDS011;40967;52.070;8.596;2023-02-08T07:29:59;11.18;;;5.63;;
55069;SDS011;40967;52.070;8.596;2023-02-08T07:32:25;10.52;;;5.80;;
55069;SDS011;40967;52.070;8.596;2023-02-08T07:34:50;10.27;;;6.00;;
55069;SDS011;40967;52.070;8.596;2023-02-08T07:37:16;11.93;;;6.20;;
55069;SDS011;40967;52.070;8.596;2023-02-08T07:39:44;11.68;;;5.88;;
55069;SDS011;40967;52.070;8.596;2023-02-08T07:42:10;11.90;;;6.30;;
55069;SDS011;40967;52.070;8.596;2023-02-08T07:44:36;10.95;;;5.82;;
55069;SDS011;40967;52.070;8.596;2023-02-08T07:47:03;10.63;;;5.63;;
55069;SDS011;40967;52.070;8.596;2023-02-08T07:49:32;9.60;;;5.18;;
55069;SDS011;40967;52.070;8.596;2023-02-08T07:51:58;11.10;;;5.75;;
55069;SDS011;40967;52.070;8.596;2023-02-08T07:54:24;11.13;;;5.83;;
55069;SDS011;40967;52.070;8.596;2023-02-08T07:56:50;10.13;;;5.33;;
55069;SDS011;40967;52.070;8.596;2023-02-08T07:59:15;11.75;;;6.28;;
55069;SDS011;40967;52.070;8.596;2023-02-08T08:01:41;10.93;;;5.50;;
55069;SDS011;40967;52.070;8.596;2023-02-08T08:04:06;10.50;;;5.65;;
55069;SDS011;40967;52.070;8.596;2023-02-08T08:06:32;9.30;;;5.10;;
55069;SDS011;40967;52.070;8.596;2023-02-08T08:08:57;9.15;;;4.95;;
55069;SDS011;40967;52.070;8.596;2023-02-08T08:11:23;8.73;;;4.83;;
55069;SDS011;40967;52.070;8.596;2023-02-08T08:13:49;9.70;;;4.90;;
55069;SDS011;40967;52.070;8.596;2023-02-08T08:16:15;8.05;;;4.20;;
55069;SDS011;40967;52.070;8.596;2023-02-08T08:18:41;10.32;;;5.00;;
55069;SDS011;40967;52.070;8.596;2023-02-08T08:21:07;8.18;;;4.88;;
55069;SDS011;40967;52.070;8.596;2023-02-08T08:23:33;7.80;;;4.43;;
55069;SDS011;40967;52.070;8.596;2023-02-08T08:26:05;8.48;;;4.47;;
55069;SDS011;40967;52.070;8.596;2023-02-08T08:28:34;8.77;;;4.78;;
55069;SDS011;40967;52.070;8.596;2023-02-08T08:31:00;8.60;;;4.63;;
55069;SDS011;40967;52.070;8.596;2023-02-08T08:33:26;8.23;;;4.33;;
55069;SDS011;40967;52.070;8.596;2023-02-08T08:35:51;9.50;;;4.90;;
55069;SDS011;40967;52.070;8.596;2023-02-08T08:38:17;8.15;;;4.40;;
55069;SDS011;40967;52.070;8.596;2023-02-08T08:40:42;8.50;;;4.30;;
55069;SDS011;40967;52.070;8.596;2023-02-08T08:43:07;8.87;;;4.93;;
55069;SDS011;40967;52.070;8.596;2023-02-08T08:45:45;8.48;;;4.30;;
55069;SDS011;40967;52.070;8.596;2023-02-08T08:48:11;8.65;;;4.22;;
55069;SDS011;40967;52.070;8.596;2023-02-08T08:50:37;7.72;;;4.20;;
55069;SDS011;40967;52.070;8.596;2023-02-08T08:53:03;8.52;;;4.65;;
55069;SDS011;40967;52.070;8.596;2023-02-08T08:55:29;7.37;;;4.07;;
55069;SDS011;40967;52.070;8.596;2023-02-08T08:57:54;7.88;;;4.10;;
55069;SDS011;40967;52.070;8.596;2023-02-08T09:00:20;7.60;;;4.23;;
55069;SDS011;40967;52.070;8.596;2023-02-08T09:02:45;7.38;;;4.07;;
55069;SDS011;40967;52.070;8.596;2023-02-08T09:05:11;6.87;;;4.03;;
55069;SDS011;40967;52.070;8.596;2023-02-08T09:07:36;7.70;;;4.17;;
55069;SDS011;40967;52.070;8.596;2023-02-08T09:10:02;7.60;;;4.40;;
55069;SDS011;40967;52.070;8.596;2023-02-08T09:12:28;9.20;;;5.03;;
55069;SDS011;40967;52.070;8.596;2023-02-08T09:14:53;9.77;;;5.40;;
55069;SDS011;40967;52.070;8.596;2023-02-08T09:17:18;10.47;;;6.20;;
55069;SDS011;40967;52.070;8.596;2023-02-08T09:19:44;11.18;;;6.43;;
55069;SDS011;40967;52.070;8.596;2023-02-08T09:22:11;10.40;;;5.55;;
55069;SDS011;40967;52.070;8.596;2023-02-08T09:24:37;10.70;;;5.80;;
55069;SDS011;40967;52.070;8.596;2023-02-08T09:27:02;10.82;;;6.07;;
55069;SDS011;40967;52.070;8.596;2023-02-08T09:29:28;10.27;;;5.80;;
55069;SDS011;40967;52.070;8.596;2023-02-08T09:31:54;9.88;;;5.75;;
55069;SDS011;40967;52.070;8.596;2023-02-08T09:34:20;11.23;;;6.50;;
55069;SDS011;40967;52.070;8.596;2023-02-08T09:36:45;10.70;;;6.20;;
55069;SDS011;40967;52.070;8.596;2023-02-08T09:39:13;10.67;;;6.30;;
55069;SDS011;40967;52.070;8.596;2023-02-08T09:46:57;10.48;;;6.60;;
55069;SDS011;40967;52.070;8.596;2023-02-08T09:49:29;10.65;;;6.20;;
55069;SDS011;40967;52.070;8.596;2023-02-08T09:52:06;10.65;;;6.30;;
55069;SDS011;40967;52.070;8.596;2023-02-08T09:55:39;8.60;;;5.40;;
55069;SDS011;40967;52.070;8.596;2023-02-08T09:57:45;10.07;;;6.10;;
55069;SDS011;40967;52.070;8.596;2023-02-08T10:00:14;9.10;;;5.18;;
55069;SDS011;40967;52.070;8.596;2023-02-08T10:02:44;7.30;;;4.30;;
55069;SDS011;40967;52.070;8.596;2023-02-08T10:05:19;8.73;;;5.38;;
55069;SDS011;40967;52.070;8.596;2023-02-08T10:07:46;9.17;;;5.60;;
55069;SDS011;40967;52.070;8.596;2023-02-08T10:10:19;9.27;;;5.75;;
55069;SDS011;40967;52.070;8.596;2023-02-08T10:13:11;11.43;;;6.88;;
55069;SDS011;40967;52.070;8.596;2023-02-08T10:15:46;9.95;;;5.88;;
55069;SDS011;40967;52.070;8.596;2023-02-08T10:21:04;8.80;;;5.15;;
55069;SDS011;40967;52.070;8.596;2023-02-08T10:26:34;8.82;;;5.10;;
55069;SDS011;40967;52.070;8.596;2023-02-08T10:30:06;7.28;;;4.25;;
55069;SDS011;40967;52.070;8.596;2023-02-08T10:32:14;8.38;;;4.18;;
55069;SDS011;40967;52.070;8.596;2023-02-08T10:37:31;8.45;;;4.80;;
55069;SDS011;40967;52.070;8.596;2023-02-08T10:40:12;7.57;;;4.10;;
55069;SDS011;40967;52.070;8.596;2023-02-08T10:42:46;9.20;;;5.07;;
55069;SDS011;40967;52.070;8.596;2023-02-08T10:45:29;8.70;;;5.28;;
55069;SDS011;40967;52.070;8.596;2023-02-08T10:48:02;9.23;;;5.40;;
55069;SDS011;40967;52.070;8.596;2023-02-08T10:50:35;7.78;;;4.75;;
55069;SDS011;40967;52.070;8.596;2023-02-08T10:53:04;7.77;;;4.30;;
55069;SDS011;40967;52.070;8.596;2023-02-08T10:55:30;7.53;;;4.23;;
55069;SDS011;40967;52.070;8.596;2023-02-08T10:57:59;8.23;;;5.05;;
55069;SDS011;40967;52.070;8.596;2023-02-08T11:00:35;9.10;;;5.30;;
55069;SDS011;40967;52.070;8.596;2023-02-08T11:05:47;8.68;;;5.00;;
55069;SDS011;40967;52.070;8.596;2023-02-08T11:08:15;9.25;;;5.55;;
55069;SDS011;40967;52.070;8.596;2023-02-08T11:10:59;9.45;;;5.53;;
55069;SDS011;40967;52.070;8.596;2023-02-08T11:13:30;9.18;;;5.60;;
55069;SDS011;40967;52.070;8.596;2023-02-08T11:16:08;8.45;;;5.35;;
55069;SDS011;40967;52.070;8.596;2023-02-08T11:18:40;8.80;;;5.40;;
55069;SDS011;40967;52.070;8.596;2023-02-08T11:24:03;9.15;;;5.47;;
55069;SDS011;40967;52.070;8.596;2023-02-08T11:26:39;8.95;;;5.00;;
55069;SDS011;40967;52.070;8.596;2023-02-08T11:34:37;8.50;;;4.57;;
55069;SDS011;40967;52.070;8.596;2023-02-08T11:39:42;7.72;;;4.50;;
55069;SDS011;40967;52.070;8.596;2023-02-08T11:42:20;8.65;;;4.78;;
55069;SDS011;40967;52.070;8.596;2023-02-08T11:47:54;6.55;;;3.60;;
55069;SDS011;40967;52.070;8.596;2023-02-08T11:50:24;7.57;;;4.63;;
55069;SDS011;40967;52.070;8.596;2023-02-08T11:53:16;7.40;;;4.43;;
55069;SDS011;40967;52.070;8.596;2023-02-08T11:56:04;8.80;;;5.40;;
55069;SDS011;40967;52.070;8.596;2023-02-08T11:58:37;8.98;;;5.20;;
55069;SDS011;40967;52.070;8.596;2023-02-08T12:01:16;9.10;;;5.27;;
55069;SDS011;40967;52.070;8.596;2023-02-08T12:03:44;8.47;;;4.63;;
55069;SDS011;40967;52.070;8.596;2023-02-08T12:14:23;6.68;;;4.05;;
55069;SDS011;40967;52.070;8.596;2023-02-08T12:19:51;7.13;;;4.10;;
55069;SDS011;40967;52.070;8.596;2023-02-08T12:22:31;8.77;;;4.93;;
55069;SDS011;40967;52.070;8.596;2023-02-08T12:28:39;7.60;;;4.70;;
55069;SDS011;40967;52.070;8.596;2023-02-08T12:36:38;9.27;;;5.10;;
55069;SDS011;40967;52.070;8.596;2023-02-08T12:42:45;7.90;;;4.87;;
55069;SDS011;40967;52.070;8.596;2023-02-08T12:50:37;7.93;;;4.70;;
55069;SDS011;40967;52.070;8.596;2023-02-08T12:53:34;8.27;;;4.70;;
55069;SDS011;40967;52.070;8.596;2023-02-08T12:56:06;6.43;;;3.63;;
55069;SDS011;40967;52.070;8.596;2023-02-08T12:58:39;7.40;;;4.00;;
55069;SDS011;40967;52.070;8.596;2023-02-08T13:01:23;7.35;;;4.20;;
55069;SDS011;40967;52.070;8.596;2023-02-08T13:06:45;7.35;;;3.97;;
55069;SDS011;40967;52.070;8.596;2023-02-08T13:11:47;6.47;;;3.63;;
55069;SDS011;40967;52.070;8.596;2023-02-08T13:17:08;6.73;;;3.70;;
55069;SDS011;40967;52.070;8.596;2023-02-08T13:19:39;6.97;;;4.07;;
55069;SDS011;40967;52.070;8.596;2023-02-08T13:22:14;8.55;;;4.70;;
55069;SDS011;40967;52.070;8.596;2023-02-08T13:24:42;8.25;;;4.90;;
55069;SDS011;40967;52.070;8.596;2023-02-08T13:27:13;7.28;;;4.30;;
55069;SDS011;40967;52.070;8.596;2023-02-08T13:29:40;8.00;;;4.55;;
55069;SDS011;40967;52.070;8.596;2023-02-08T13:32:16;7.72;;;4.38;;
55069;SDS011;40967;52.070;8.596;2023-02-08T13:34:51;7.53;;;4.30;;
55069;SDS011;40967;52.070;8.596;2023-02-08T13:39:50;8.00;;;4.20;;
55069;SDS011;40967;52.070;8.596;2023-02-08T13:45:21;7.20;;;4.13;;
55069;SDS011;40967;52.070;8.596;2023-02-08T13:48:07;6.32;;;3.70;;
55069;SDS011;40967;52.070;8.596;2023-02-08T13:56:08;7.53;;;4.35;;
55069;SDS011;40967;52.070;8.596;2023-02-08T14:03:43;7.78;;;4.32;;
55069;SDS011;40967;52.070;8.596;2023-02-08T14:14:22;6.83;;;3.70;;
55069;SDS011;40967;52.070;8.596;2023-02-08T14:19:32;6.30;;;3.70;;
55069;SDS011;40967;52.070;8.596;2023-02-08T14:22:04;6.13;;;3.40;;
55069;SDS011;40967;52.070;8.596;2023-02-08T14:32:34;5.63;;;3.20;;
55069;SDS011;40967;52.070;8.596;2023-02-08T14:35:07;5.35;;;3.03;;
55069;SDS011;40967;52.070;8.596;2023-02-08T14:37:43;5.93;;;3.20;;
55069;SDS011;40967;52.070;8.596;2023-02-08T14:45:25;5.45;;;2.88;;
55069;SDS011;40967;52.070;8.596;2023-02-08T14:50:23;5.00;;;2.50;;
55069;SDS011;40967;52.070;8.596;2023-02-08T14:52:55;4.88;;;2.30;;
55069;SDS011;40967;52.070;8.596;2023-02-08T14:55:26;5.00;;;2.37;;
55069;SDS011;40967;52.070;8.596;2023-02-08T14:57:56;4.57;;;2.50;;
55069;SDS011;40967;52.070;8.596;2023-02-08T15:00:33;4.68;;;2.53;;
55069;SDS011;40967;52.070;8.596;2023-02-08T15:03:02;4.10;;;2.17;;
55069;SDS011;40967;52.070;8.596;2023-02-08T15:05:37;4.57;;;2.42;;
55069;SDS011;40967;52.070;8.596;2023-02-08T15:08:10;4.73;;;2.27;;
55069;SDS011;40967;52.070;8.596;2023-02-08T15:10:39;4.57;;;2.35;;
55069;SDS011;40967;52.070;8.596;2023-02-08T15:13:15;4.43;;;2.30;;
55069;SDS011;40967;52.070;8.596;2023-02-08T15:15:49;4.13;;;2.00;;
55069;SDS011;40967;52.070;8.596;2023-02-08T15:18:24;4.00;;;1.98;;
55069;SDS011;40967;52.070;8.596;2023-02-08T15:21:26;4.93;;;2.45;;
55069;SDS011;40967;52.070;8.596;2023-02-08T15:24:01;5.10;;;2.50;;
55069;SDS011;40967;52.070;8.596;2023-02-08T15:26:32;5.28;;;2.60;;
55069;SDS011;40967;52.070;8.596;2023-02-08T15:28:57;5.90;;;2.85;;
55069;SDS011;40967;52.070;8.596;2023-02-08T15:31:26;4.60;;;2.40;;
55069;SDS011;40967;52.070;8.596;2023-02-08T15:33:56;5.82;;;2.88;;
55069;SDS011;40967;52.070;8.596;2023-02-08T15:36:33;4.90;;;2.60;;
55069;SDS011;40967;52.070;8.596;2023-02-08T15:39:03;5.20;;;2.90;;
55069;SDS011;40967;52.070;8.596;2023-02-08T15:41:35;4.82;;;2.53;;
55069;SDS011;40967;52.070;8.596;2023-02-08T15:44:13;5.00;;;2.33;;
55069;SDS011;40967;52.070;8.596;2023-02-08T15:46:48;4.65;;;2.35;;
55069;SDS011;40967;52.070;8.596;2023-02-08T15:49:16;4.70;;;2.40;;
55069;SDS011;40967;52.070;8.596;2023-02-08T15:52:06;4.70;;;2.42;;
55069;SDS011;40967;52.070;8.596;2023-02-08T15:54:32;5.23;;;2.50;;
55069;SDS011;40967;52.070;8.596;2023-02-08T15:57:08;5.15;;;2.55;;
55069;SDS011;40967;52.070;8.596;2023-02-08T15:59:56;4.93;;;2.33;;
55069;SDS011;40967;52.070;8.596;2023-02-08T16:02:25;5.53;;;2.60;;
55069;SDS011;40967;52.070;8.596;2023-02-08T16:04:53;4.67;;;2.17;;
55069;SDS011;40967;52.070;8.596;2023-02-08T16:07:24;5.15;;;2.45;;
55069;SDS011;40967;52.070;8.596;2023-02-08T16:10:17;5.47;;;2.83;;
55069;SDS011;40967;52.070;8.596;2023-02-08T16:12:49;4.73;;;2.33;;
55069;SDS011;40967;52.070;8.596;2023-02-08T16:15:39;5.10;;;2.70;;
55069;SDS011;40967;52.070;8.596;2023-02-08T16:20:58;4.82;;;2.08;;
55069;SDS011;40967;52.070;8.596;2023-02-08T16:23:29;4.55;;;2.00;;
55069;SDS011;40967;52.070;8.596;2023-02-08T16:25:56;3.22;;;1.52;;
55069;SDS011;40967;52.070;8.596;2023-02-08T16:28:33;4.07;;;1.80;;
55069;SDS011;40967;52.070;8.596;2023-02-08T16:30:59;4.00;;;1.97;;
55069;SDS011;40967;52.070;8.596;2023-02-08T16:33:28;3.72;;;1.85;;
55069;SDS011;40967;52.070;8.596;2023-02-08T16:35:55;4.93;;;1.88;;
55069;SDS011;40967;52.070;8.596;2023-02-08T16:38:26;4.20;;;1.80;;
55069;SDS011;40967;52.070;8.596;2023-02-08T16:40:57;3.20;;;1.60;;
55069;SDS011;40967;52.070;8.596;2023-02-08T16:43:36;3.78;;;1.75;;
55069;SDS011;40967;52.070;8.596;2023-02-08T16:48:39;3.92;;;1.83;;
55069;SDS011;40967;52.070;8.596;2023-02-08T16:51:09;3.95;;;1.83;;
55069;SDS011;40967;52.070;8.596;2023-02-08T16:54:09;3.90;;;1.90;;
55069;SDS011;40967;52.070;8.596;2023-02-08T16:56:37;4.13;;;1.90;;
55069;SDS011;40967;52.070;8.596;2023-02-08T16:59:05;4.22;;;1.90;;
55069;SDS011;40967;52.070;8.596;2023-02-08T17:01:31;4.35;;;2.00;;
55069;SDS011;40967;52.070;8.596;2023-02-08T17:03:57;4.32;;;1.85;;
55069;SDS011;40967;52.070;8.596;2023-02-08T17:06:32;4.20;;;2.20;;
55069;SDS011;40967;52.070;8.596;2023-02-08T17:09:00;5.23;;;2.43;;
55069;SDS011;40967;52.070;8.596;2023-02-08T17:11:27;5.38;;;2.60;;
55069;SDS011;40967;52.070;8.596;2023-02-08T17:13:53;5.00;;;2.40;;
55069;SDS011;40967;52.070;8.596;2023-02-08T17:16:20;5.72;;;2.70;;
55069;SDS011;40967;52.070;8.596;2023-02-08T17:18:48;4.53;;;2.33;;
55069;SDS011;40967;52.070;8.596;2023-02-08T17:21:14;4.10;;;2.10;;
55069;SDS011;40967;52.070;8.596;2023-02-08T17:23:40;5.78;;;2.63;;
55069;SDS011;40967;52.070;8.596;2023-02-08T17:28:43;5.10;;;2.50;;
55069;SDS011;40967;52.070;8.596;2023-02-08T17:31:12;5.33;;;2.43;;
55069;SDS011;40967;52.070;8.596;2023-02-08T17:33:38;4.63;;;2.17;;
55069;SDS011;40967;52.070;8.596;2023-02-08T17:36:08;4.80;;;2.33;;
55069;SDS011;40967;52.070;8.596;2023-02-08T17:38:35;4.70;;;2.35;;
55069;SDS011;40967;52.070;8.596;2023-02-08T17:41:05;4.20;;;1.92;;
55069;SDS011;40967;52.070;8.596;2023-02-08T17:43:41;5.13;;;2.40;;
55069;SDS011;40967;52.070;8.596;2023-02-08T17:46:11;5.07;;;2.33;;
55069;SDS011;40967;52.070;8.596;2023-02-08T17:48:42;5.18;;;2.35;;
55069;SDS011;40967;52.070;8.596;2023-02-08T17:51:12;4.07;;;2.17;;